UTA381 UUWW-ULLI
Flight info
| Callsign | UTA381 |
|---|---|
| Flight time | 1h 6m |
| Altitude | 32000 |
| Route | K0774F300 SUNUN3Z SUNUN M869 RAVKA N50 NUDKO T561 ODATI T875 GENPA GENPA1V |
| Aircraft | B738/M-SDE2E3FGHIRWXY/LB1 |
Departure
| Time | 2026-05-04 17:41 |
|---|---|
| Airport | Vnukovo International Airport (UUWW) |
Arrival
| Time | 2026-05-04 18:47 |
|---|---|
| Airport | Pulkovo Airport (ULLI) |
| Time | Latitude | Longitude | Altitude | Speed | Heading |
|---|---|---|---|---|---|
| 2026-05-04 16:20 | 55.60447 | 37.28276 | 690 ft | 0 kts | 158° |
| 2026-05-04 16:41 | 55.60479 | 37.28252 | 690 ft | 2 kts | 158° |
| 2026-05-04 16:42 | 55.60518 | 37.28230 | 690 ft | 2 kts | 166° |
| 2026-05-04 16:43 | 55.60547 | 37.28217 | 690 ft | 2 kts | 166° |
| 2026-05-04 16:43 | 55.60575 | 37.28204 | 690 ft | 2 kts | 166° |
| 2026-05-04 16:43 | 55.60587 | 37.28199 | 690 ft | 2 kts | 155° |
| 2026-05-04 16:44 | 55.60635 | 37.28148 | 690 ft | 2 kts | 144° |
| 2026-05-04 16:45 | 55.60660 | 37.28118 | 690 ft | 2 kts | 146° |
| 2026-05-04 16:46 | 55.60667 | 37.28110 | 690 ft | 0 kts | 146° |
| 2026-05-04 16:47 | 55.60658 | 37.28120 | 690 ft | 4 kts | 146° |
| 2026-05-04 16:47 | 55.60650 | 37.28130 | 690 ft | 0 kts | 146° |
| 2026-05-04 16:49 | 55.60588 | 37.28149 | 690 ft | 10 kts | 187° |
| 2026-05-04 16:50 | 55.60492 | 37.28024 | 690 ft | 12 kts | 225° |
| 2026-05-04 16:50 | 55.60365 | 37.27859 | 690 ft | 10 kts | 188° |
| 2026-05-04 16:51 | 55.60242 | 37.27836 | 690 ft | 8 kts | 182° |
| 2026-05-04 16:51 | 55.60166 | 37.27864 | 690 ft | 11 kts | 157° |
| 2026-05-04 16:51 | 55.60061 | 37.27788 | 690 ft | 6 kts | 224° |
| 2026-05-04 16:52 | 55.59958 | 37.27879 | 690 ft | 8 kts | 148° |
| 2026-05-04 16:52 | 55.59945 | 37.27955 | 690 ft | 6 kts | 89° |
| 2026-05-04 16:53 | 55.59933 | 37.28143 | 691 ft | 13 kts | 106° |
| 2026-05-04 16:53 | 55.59886 | 37.28413 | 691 ft | 5 kts | 140° |
| 2026-05-04 16:54 | 55.59866 | 37.28450 | 691 ft | 3 kts | 94° |
| 2026-05-04 16:55 | 55.59940 | 37.28816 | 691 ft | 13 kts | 69° |
| 2026-05-04 16:55 | 55.59873 | 37.28983 | 691 ft | 0 kts | 171° |
| 2026-05-04 16:57 | 55.59871 | 37.28983 | 691 ft | 0 kts | 171° |
| 2026-05-04 16:57 | 55.59858 | 37.28986 | 691 ft | 0 kts | 171° |
| 2026-05-04 16:58 | 55.59856 | 37.28987 | 691 ft | 1 kts | 171° |
| 2026-05-04 16:59 | 55.59815 | 37.28991 | 691 ft | 3 kts | 193° |
| 2026-05-04 17:00 | 55.59676 | 37.28458 | 691 ft | 23 kts | 249° |
| 2026-05-04 17:00 | 55.59694 | 37.28197 | 691 ft | 5 kts | 37° |
| 2026-05-04 17:01 | 55.59748 | 37.28272 | 691 ft | 1 kts | 38° |
| 2026-05-04 17:32 | 55.59750 | 37.28273 | 691 ft | 0 kts | 38° |
| 2026-05-04 17:33 | 55.59798 | 37.28341 | 691 ft | 3 kts | 38° |
| 2026-05-04 17:33 | 55.59816 | 37.28366 | 691 ft | 3 kts | 38° |
| 2026-05-04 17:34 | 55.59860 | 37.28447 | 691 ft | 3 kts | 64° |
| 2026-05-04 17:34 | 55.59868 | 37.28480 | 691 ft | 3 kts | 65° |
| 2026-05-04 17:35 | 55.59894 | 37.28584 | 691 ft | 3 kts | 65° |
| 2026-05-04 17:35 | 55.59911 | 37.28653 | 691 ft | 3 kts | 65° |
| 2026-05-04 17:35 | 55.59922 | 37.28697 | 691 ft | 4 kts | 70° |
| 2026-05-04 17:36 | 55.59925 | 37.28711 | 691 ft | 0 kts | 70° |
| 2026-05-04 17:37 | 55.59925 | 37.28714 | 691 ft | 0 kts | 70° |
| 2026-05-04 17:37 | 55.59929 | 37.28732 | 691 ft | 1 kts | 70° |
| 2026-05-04 17:37 | 55.59935 | 37.28759 | 691 ft | 2 kts | 70° |
| 2026-05-04 17:37 | 55.59941 | 37.28789 | 691 ft | 2 kts | 70° |
| 2026-05-04 17:38 | 55.59948 | 37.28824 | 691 ft | 2 kts | 70° |
| 2026-05-04 17:38 | 55.59953 | 37.28859 | 691 ft | 3 kts | 77° |
| 2026-05-04 17:38 | 55.59956 | 37.28895 | 691 ft | 2 kts | 98° |
| 2026-05-04 17:38 | 55.59945 | 37.28922 | 691 ft | 2 kts | 140° |
| 2026-05-04 17:39 | 55.59904 | 37.28953 | 691 ft | 6 kts | 161° |
| 2026-05-04 17:39 | 55.59843 | 37.28980 | 691 ft | 8 kts | 171° |
| 2026-05-04 17:39 | 55.59794 | 37.28960 | 691 ft | 6 kts | 224° |
| 2026-05-04 17:40 | 55.59776 | 37.28898 | 691 ft | 5 kts | 246° |
| 2026-05-04 17:40 | 55.59705 | 37.28588 | 691 ft | 65 kts | 249° |
| 2026-05-04 17:40 | 55.59443 | 37.27415 | 691 ft | 139 kts | 247° |
| 2026-05-04 17:40 | 55.59005 | 37.25472 | 751 ft | 193 kts | 248° |
| 2026-05-04 17:41 | 55.58519 | 37.23214 | 1553 ft | 202 kts | 246° |
| 2026-05-04 17:41 | 55.57796 | 37.21112 | 2515 ft | 212 kts | 232° |
| 2026-05-04 17:41 | 55.56831 | 37.19143 | 3313 ft | 217 kts | 232° |
| 2026-05-04 17:41 | 55.55884 | 37.17081 | 4035 ft | 223 kts | 235° |
| 2026-05-04 17:42 | 55.55018 | 37.14830 | 4843 ft | 223 kts | 245° |
| 2026-05-04 17:42 | 55.54663 | 37.12227 | 5597 ft | 225 kts | 269° |
| 2026-05-04 17:42 | 55.54756 | 37.09475 | 6367 ft | 228 kts | 279° |
| 2026-05-04 17:42 | 55.55176 | 37.07226 | 6999 ft | 232 kts | 296° |
| 2026-05-04 17:43 | 55.55672 | 37.05836 | 7458 ft | 235 kts | 304° |
| 2026-05-04 17:43 | 55.56849 | 37.03715 | 7803 ft | 250 kts | 323° |
| 2026-05-04 17:43 | 55.58478 | 37.02542 | 7860 ft | 263 kts | 349° |
| 2026-05-04 17:43 | 55.60305 | 37.02430 | 7879 ft | 263 kts | 357° |
| 2026-05-04 17:44 | 55.62122 | 37.02522 | 7876 ft | 262 kts | 358° |
| 2026-05-04 17:44 | 55.63944 | 37.02527 | 7896 ft | 260 kts | 352° |
| 2026-05-04 17:44 | 55.65692 | 37.01834 | 8237 ft | 258 kts | 335° |
| 2026-05-04 17:44 | 55.67336 | 37.00568 | 8802 ft | 265 kts | 332° |
| 2026-05-04 17:45 | 55.69039 | 36.99178 | 9391 ft | 274 kts | 333° |
| 2026-05-04 17:45 | 55.70792 | 36.97817 | 10014 ft | 283 kts | 334° |
| 2026-05-04 17:45 | 55.72641 | 36.96445 | 10565 ft | 292 kts | 334° |
| 2026-05-04 17:45 | 55.74521 | 36.95059 | 11193 ft | 301 kts | 334° |
| 2026-05-04 17:46 | 55.76485 | 36.93576 | 11770 ft | 310 kts | 334° |
| 2026-05-04 17:46 | 55.78447 | 36.92071 | 12517 ft | 313 kts | 333° |
| 2026-05-04 17:46 | 55.80368 | 36.90228 | 13266 ft | 314 kts | 323° |
| 2026-05-04 17:46 | 55.81862 | 36.87506 | 13966 ft | 314 kts | 300° |
| 2026-05-04 17:47 | 55.82629 | 36.83876 | 14696 ft | 316 kts | 283° |
| 2026-05-04 17:47 | 55.83065 | 36.80033 | 15402 ft | 320 kts | 280° |
| 2026-05-04 17:47 | 55.83450 | 36.76172 | 16150 ft | 323 kts | 280° |
| 2026-05-04 17:47 | 55.83857 | 36.72238 | 16874 ft | 326 kts | 281° |
| 2026-05-04 17:48 | 55.84295 | 36.68265 | 17602 ft | 328 kts | 281° |
| 2026-05-04 17:48 | 55.84744 | 36.64332 | 18298 ft | 330 kts | 282° |
| 2026-05-04 17:48 | 55.85212 | 36.60311 | 18955 ft | 334 kts | 282° |
| 2026-05-04 17:48 | 55.85839 | 36.56380 | 19601 ft | 337 kts | 291° |
| 2026-05-04 17:49 | 55.86912 | 36.52651 | 20264 ft | 340 kts | 303° |
| 2026-05-04 17:49 | 55.88406 | 36.49444 | 20916 ft | 344 kts | 315° |
| 2026-05-04 17:49 | 55.90298 | 36.46831 | 21579 ft | 348 kts | 326° |
| 2026-05-04 17:49 | 55.92478 | 36.44989 | 22241 ft | 351 kts | 338° |
| 2026-05-04 17:50 | 55.94833 | 36.43772 | 22913 ft | 351 kts | 339° |
| 2026-05-04 17:50 | 55.97025 | 36.42089 | 23570 ft | 345 kts | 327° |
| 2026-05-04 17:50 | 55.98967 | 36.39631 | 24261 ft | 340 kts | 317° |
| 2026-05-04 17:50 | 56.00681 | 36.36847 | 24957 ft | 336 kts | 314° |
| 2026-05-04 17:51 | 56.02355 | 36.33964 | 25655 ft | 332 kts | 313° |
| 2026-05-04 17:51 | 56.03838 | 36.31387 | 26284 ft | 328 kts | 313° |
| 2026-05-04 17:51 | 56.04720 | 36.29859 | 26661 ft | 326 kts | 313° |
| 2026-05-04 17:51 | 56.06340 | 36.27071 | 27365 ft | 320 kts | 313° |
| 2026-05-04 17:52 | 56.07911 | 36.24387 | 28058 ft | 313 kts | 313° |
| 2026-05-04 17:52 | 56.09474 | 36.21729 | 28763 ft | 305 kts | 313° |
| 2026-05-04 17:52 | 56.10972 | 36.19185 | 29458 ft | 296 kts | 313° |
| 2026-05-04 17:52 | 56.12463 | 36.16650 | 29780 ft | 299 kts | 313° |
| 2026-05-04 17:53 | 56.15270 | 36.10913 | 29936 ft | 315 kts | 300° |
| 2026-05-04 17:53 | 56.17372 | 36.03809 | 30061 ft | 333 kts | 293° |
| 2026-05-04 17:54 | 56.18359 | 35.99996 | 30124 ft | 344 kts | 293° |
| 2026-05-04 17:54 | 56.19386 | 35.96035 | 30181 ft | 354 kts | 294° |
| 2026-05-04 17:54 | 56.20557 | 35.92107 | 30231 ft | 366 kts | 300° |
| 2026-05-04 17:54 | 56.22085 | 35.88247 | 30289 ft | 378 kts | 307° |
| 2026-05-04 17:55 | 56.23897 | 35.84745 | 30343 ft | 390 kts | 314° |
| 2026-05-04 17:55 | 56.26015 | 35.81563 | 30392 ft | 403 kts | 321° |
| 2026-05-04 17:55 | 56.28334 | 35.78727 | 30555 ft | 411 kts | 324° |
| 2026-05-04 17:55 | 56.30759 | 35.75958 | 31020 ft | 411 kts | 324° |
| 2026-05-04 17:56 | 56.33157 | 35.73185 | 31545 ft | 408 kts | 324° |
| 2026-05-04 17:56 | 56.35487 | 35.70399 | 32028 ft | 406 kts | 323° |
| 2026-05-04 17:56 | 56.37820 | 35.67513 | 32479 ft | 405 kts | 322° |
| 2026-05-04 17:56 | 56.40092 | 35.64621 | 32892 ft | 405 kts | 322° |
| 2026-05-04 17:57 | 56.42379 | 35.61645 | 33310 ft | 404 kts | 321° |
| 2026-05-04 17:57 | 56.44604 | 35.58709 | 33759 ft | 401 kts | 321° |
| 2026-05-04 17:57 | 56.49152 | 35.52626 | 33831 ft | 405 kts | 321° |
| 2026-05-04 17:58 | 56.53634 | 35.46579 | 33826 ft | 399 kts | 321° |
| 2026-05-04 17:58 | 56.58053 | 35.40585 | 33825 ft | 399 kts | 320° |
| 2026-05-04 17:59 | 56.62501 | 35.34478 | 33826 ft | 399 kts | 319° |
| 2026-05-04 18:00 | 56.69098 | 35.25341 | 33816 ft | 400 kts | 319° |
| 2026-05-04 18:00 | 56.73523 | 35.19193 | 33826 ft | 407 kts | 319° |
| 2026-05-04 18:00 | 56.75764 | 35.16070 | 33995 ft | 411 kts | 319° |
| 2026-05-04 18:01 | 56.78029 | 35.12918 | 34677 ft | 403 kts | 319° |
| 2026-05-04 18:01 | 56.80219 | 35.09868 | 35063 ft | 401 kts | 319° |
| 2026-05-04 18:01 | 56.82446 | 35.06757 | 35296 ft | 403 kts | 319° |
| 2026-05-04 18:02 | 56.86853 | 35.00585 | 35953 ft | 400 kts | 319° |
| 2026-05-04 18:02 | 56.89029 | 34.97531 | 36220 ft | 400 kts | 319° |
| 2026-05-04 18:02 | 56.91242 | 34.94427 | 36508 ft | 399 kts | 319° |
| 2026-05-04 18:02 | 56.93470 | 34.91492 | 36797 ft | 400 kts | 322° |
| 2026-05-04 18:03 | 56.95794 | 34.88671 | 37079 ft | 401 kts | 323° |
| 2026-05-04 18:03 | 56.98122 | 34.85944 | 37403 ft | 401 kts | 323° |
| 2026-05-04 18:03 | 57.00488 | 34.83193 | 37738 ft | 400 kts | 323° |
| 2026-05-04 18:03 | 57.02814 | 34.80477 | 37813 ft | 403 kts | 323° |
| 2026-05-04 18:04 | 57.07582 | 34.74838 | 37818 ft | 410 kts | 323° |
| 2026-05-04 18:05 | 57.14755 | 34.66239 | 37806 ft | 413 kts | 323° |
| 2026-05-04 18:05 | 57.19500 | 34.60509 | 37799 ft | 402 kts | 322° |
| 2026-05-04 18:05 | 57.21810 | 34.57720 | 37807 ft | 388 kts | 323° |
| 2026-05-04 18:06 | 57.26171 | 34.52438 | 37801 ft | 370 kts | 322° |
| 2026-05-04 18:06 | 57.30472 | 34.47171 | 37790 ft | 377 kts | 322° |
| 2026-05-04 18:07 | 57.34944 | 34.41671 | 37776 ft | 382 kts | 322° |
| 2026-05-04 18:07 | 57.39402 | 34.36200 | 37769 ft | 390 kts | 322° |
| 2026-05-04 18:08 | 57.43949 | 34.30609 | 37764 ft | 398 kts | 321° |
| 2026-05-04 18:08 | 57.48603 | 34.24867 | 37768 ft | 409 kts | 322° |
| 2026-05-04 18:09 | 57.53399 | 34.18929 | 37773 ft | 423 kts | 321° |
| 2026-05-04 18:09 | 57.58357 | 34.12776 | 37762 ft | 431 kts | 322° |
| 2026-05-04 18:10 | 57.63369 | 34.06538 | 37753 ft | 438 kts | 322° |
| 2026-05-04 18:10 | 57.68431 | 34.00212 | 37753 ft | 441 kts | 321° |
| 2026-05-04 18:11 | 57.73486 | 33.93882 | 37753 ft | 438 kts | 322° |
| 2026-05-04 18:11 | 57.78553 | 33.87512 | 37759 ft | 438 kts | 321° |
| 2026-05-04 18:12 | 57.83616 | 33.81118 | 37759 ft | 438 kts | 321° |
| 2026-05-04 18:12 | 57.88624 | 33.74694 | 37756 ft | 437 kts | 319° |
| 2026-05-04 18:13 | 57.93366 | 33.67686 | 37752 ft | 435 kts | 316° |
| 2026-05-04 18:14 | 58.00334 | 33.56761 | 37735 ft | 434 kts | 316° |
| 2026-05-04 18:14 | 58.04965 | 33.49568 | 37727 ft | 437 kts | 316° |
| 2026-05-04 18:15 | 58.09649 | 33.42341 | 37600 ft | 431 kts | 316° |
| 2026-05-04 18:15 | 58.14154 | 33.35422 | 36911 ft | 413 kts | 316° |
| 2026-05-04 18:15 | 58.16373 | 33.32001 | 36446 ft | 409 kts | 315° |
| 2026-05-04 18:16 | 58.18545 | 33.28645 | 36074 ft | 405 kts | 315° |
| 2026-05-04 18:16 | 58.20728 | 33.25262 | 35628 ft | 402 kts | 315° |
| 2026-05-04 18:16 | 58.22862 | 33.21954 | 35153 ft | 401 kts | 314° |
| 2026-05-04 18:17 | 58.27160 | 33.15267 | 34126 ft | 397 kts | 315° |
| 2026-05-04 18:17 | 58.29265 | 33.11988 | 33644 ft | 393 kts | 315° |
| 2026-05-04 18:17 | 58.33454 | 33.05444 | 32705 ft | 387 kts | 314° |
| 2026-05-04 18:18 | 58.35496 | 33.02247 | 32237 ft | 384 kts | 315° |
| 2026-05-04 18:18 | 58.37550 | 32.99018 | 31779 ft | 381 kts | 314° |
| 2026-05-04 18:18 | 58.39566 | 32.95837 | 31320 ft | 378 kts | 314° |
| 2026-05-04 18:18 | 58.41596 | 32.92633 | 30860 ft | 375 kts | 314° |
| 2026-05-04 18:19 | 58.45548 | 32.86333 | 29958 ft | 369 kts | 314° |
| 2026-05-04 18:19 | 58.47499 | 32.83261 | 29505 ft | 367 kts | 313° |
| 2026-05-04 18:19 | 58.49466 | 32.80179 | 29046 ft | 364 kts | 314° |
| 2026-05-04 18:20 | 58.51393 | 32.77154 | 28594 ft | 362 kts | 313° |
| 2026-05-04 18:20 | 58.53324 | 32.74083 | 28149 ft | 359 kts | 313° |
| 2026-05-04 18:20 | 58.55212 | 32.71076 | 27710 ft | 357 kts | 313° |
| 2026-05-04 18:20 | 58.57125 | 32.68053 | 27265 ft | 355 kts | 314° |
| 2026-05-04 18:21 | 58.58998 | 32.65101 | 26839 ft | 352 kts | 313° |
| 2026-05-04 18:21 | 58.60881 | 32.62105 | 26400 ft | 350 kts | 313° |
| 2026-05-04 18:21 | 58.62722 | 32.59166 | 25972 ft | 348 kts | 313° |
| 2026-05-04 18:21 | 58.64571 | 32.56206 | 25530 ft | 346 kts | 313° |
| 2026-05-04 18:22 | 58.66410 | 32.53249 | 25117 ft | 343 kts | 312° |
| 2026-05-04 18:22 | 58.68200 | 32.50333 | 24683 ft | 341 kts | 312° |
| 2026-05-04 18:22 | 58.70015 | 32.47412 | 24257 ft | 339 kts | 313° |
| 2026-05-04 18:22 | 58.71821 | 32.44526 | 23840 ft | 337 kts | 313° |
| 2026-05-04 18:23 | 58.73590 | 32.41693 | 23430 ft | 335 kts | 312° |
| 2026-05-04 18:23 | 58.75378 | 32.38817 | 23004 ft | 333 kts | 313° |
| 2026-05-04 18:23 | 58.77142 | 32.35974 | 22589 ft | 332 kts | 312° |
| 2026-05-04 18:23 | 58.78913 | 32.33122 | 22186 ft | 329 kts | 311° |
| 2026-05-04 18:24 | 58.80662 | 32.30289 | 21767 ft | 328 kts | 311° |
| 2026-05-04 18:24 | 58.82407 | 32.27461 | 21357 ft | 326 kts | 312° |
| 2026-05-04 18:24 | 58.84120 | 32.24681 | 20952 ft | 324 kts | 311° |
| 2026-05-04 18:24 | 58.85834 | 32.21891 | 20539 ft | 323 kts | 311° |
| 2026-05-04 18:25 | 58.87551 | 32.19095 | 20148 ft | 321 kts | 311° |
| 2026-05-04 18:25 | 58.89263 | 32.16299 | 19740 ft | 319 kts | 311° |
| 2026-05-04 18:25 | 58.90943 | 32.13547 | 19337 ft | 317 kts | 311° |
| 2026-05-04 18:25 | 58.92607 | 32.10820 | 18947 ft | 315 kts | 311° |
| 2026-05-04 18:26 | 58.94265 | 32.08106 | 18551 ft | 313 kts | 312° |
| 2026-05-04 18:26 | 58.95929 | 32.05379 | 18164 ft | 310 kts | 312° |
| 2026-05-04 18:26 | 58.97546 | 32.02723 | 17783 ft | 308 kts | 311° |
| 2026-05-04 18:26 | 58.99167 | 32.00055 | 17397 ft | 305 kts | 311° |
| 2026-05-04 18:27 | 59.00785 | 31.97390 | 17017 ft | 303 kts | 311° |
| 2026-05-04 18:27 | 59.02381 | 31.94762 | 16637 ft | 300 kts | 311° |
| 2026-05-04 18:27 | 59.03966 | 31.92148 | 16260 ft | 298 kts | 311° |
| 2026-05-04 18:27 | 59.05531 | 31.89556 | 15882 ft | 296 kts | 311° |
| 2026-05-04 18:28 | 59.07090 | 31.86989 | 15523 ft | 292 kts | 311° |
| 2026-05-04 18:28 | 59.08616 | 31.84463 | 15155 ft | 289 kts | 311° |
| 2026-05-04 18:28 | 59.10140 | 31.81930 | 14791 ft | 286 kts | 311° |
| 2026-05-04 18:28 | 59.11623 | 31.79387 | 14442 ft | 281 kts | 309° |
| 2026-05-04 18:29 | 59.13021 | 31.76758 | 14083 ft | 277 kts | 307° |
| 2026-05-04 18:29 | 59.14364 | 31.74131 | 13728 ft | 273 kts | 307° |
| 2026-05-04 18:29 | 59.15697 | 31.71545 | 13390 ft | 270 kts | 307° |
| 2026-05-04 18:29 | 59.17027 | 31.68996 | 13056 ft | 267 kts | 308° |
| 2026-05-04 18:30 | 59.19657 | 31.63998 | 12389 ft | 262 kts | 307° |
| 2026-05-04 18:30 | 59.20954 | 31.61524 | 12064 ft | 260 kts | 307° |
| 2026-05-04 18:30 | 59.22230 | 31.59091 | 11737 ft | 257 kts | 307° |
| 2026-05-04 18:31 | 59.23515 | 31.56638 | 11417 ft | 253 kts | 307° |
| 2026-05-04 18:31 | 59.24763 | 31.54253 | 11101 ft | 251 kts | 307° |
| 2026-05-04 18:31 | 59.26011 | 31.51866 | 10766 ft | 250 kts | 307° |
| 2026-05-04 18:31 | 59.27250 | 31.49486 | 10467 ft | 251 kts | 307° |
| 2026-05-04 18:32 | 59.28499 | 31.47086 | 10138 ft | 254 kts | 308° |
| 2026-05-04 18:32 | 59.29767 | 31.44651 | 9807 ft | 256 kts | 308° |
| 2026-05-04 18:32 | 59.31030 | 31.42226 | 9492 ft | 254 kts | 308° |
| 2026-05-04 18:32 | 59.32267 | 31.39852 | 9193 ft | 250 kts | 308° |
| 2026-05-04 18:33 | 59.33508 | 31.37468 | 8883 ft | 246 kts | 308° |
| 2026-05-04 18:33 | 59.34711 | 31.35151 | 8583 ft | 243 kts | 307° |
| 2026-05-04 18:33 | 59.35921 | 31.32815 | 8272 ft | 241 kts | 307° |
| 2026-05-04 18:33 | 59.37107 | 31.30528 | 7969 ft | 238 kts | 307° |
| 2026-05-04 18:34 | 59.38285 | 31.28249 | 7666 ft | 235 kts | 307° |
| 2026-05-04 18:34 | 59.39429 | 31.26032 | 7367 ft | 233 kts | 306° |
| 2026-05-04 18:34 | 59.40585 | 31.23792 | 7076 ft | 230 kts | 307° |
| 2026-05-04 18:34 | 59.41724 | 31.21589 | 6789 ft | 228 kts | 306° |
| 2026-05-04 18:35 | 59.42837 | 31.19430 | 6497 ft | 226 kts | 307° |
| 2026-05-04 18:35 | 59.43958 | 31.17247 | 6186 ft | 226 kts | 307° |
| 2026-05-04 18:35 | 59.45088 | 31.15035 | 5913 ft | 228 kts | 307° |
| 2026-05-04 18:35 | 59.46206 | 31.12862 | 5674 ft | 224 kts | 307° |
| 2026-05-04 18:36 | 59.47315 | 31.10707 | 5320 ft | 224 kts | 307° |
| 2026-05-04 18:36 | 59.48422 | 31.08544 | 4965 ft | 223 kts | 308° |
| 2026-05-04 18:36 | 59.49521 | 31.06402 | 4673 ft | 219 kts | 308° |
| 2026-05-04 18:36 | 59.50604 | 31.04286 | 4338 ft | 219 kts | 309° |
| 2026-05-04 18:37 | 59.51689 | 31.02142 | 3951 ft | 221 kts | 307° |
| 2026-05-04 18:37 | 59.52708 | 30.99921 | 3560 ft | 218 kts | 305° |
| 2026-05-04 18:37 | 59.53685 | 30.97663 | 3227 ft | 216 kts | 305° |
| 2026-05-04 18:37 | 59.54663 | 30.95391 | 2933 ft | 213 kts | 306° |
| 2026-05-04 18:38 | 59.55620 | 30.93197 | 2581 ft | 215 kts | 307° |
| 2026-05-04 18:38 | 59.56599 | 30.90954 | 2291 ft | 213 kts | 307° |
| 2026-05-04 18:38 | 59.57571 | 30.88722 | 1965 ft | 213 kts | 307° |
| 2026-05-04 18:38 | 59.58544 | 30.86513 | 1634 ft | 214 kts | 308° |
| 2026-05-04 18:39 | 59.59499 | 30.84353 | 1521 ft | 204 kts | 308° |
| 2026-05-04 18:39 | 59.60388 | 30.82341 | 1742 ft | 181 kts | 307° |
| 2026-05-04 18:39 | 59.61192 | 30.80494 | 2001 ft | 181 kts | 306° |
| 2026-05-04 18:39 | 59.62068 | 30.78442 | 2125 ft | 212 kts | 306° |
| 2026-05-04 18:40 | 59.63068 | 30.76114 | 2130 ft | 219 kts | 307° |
| 2026-05-04 18:40 | 59.64043 | 30.73885 | 2128 ft | 210 kts | 307° |
| 2026-05-04 18:40 | 59.64999 | 30.71700 | 2212 ft | 206 kts | 307° |
| 2026-05-04 18:40 | 59.65935 | 30.69531 | 2305 ft | 208 kts | 306° |
| 2026-05-04 18:41 | 59.66959 | 30.67437 | 2394 ft | 213 kts | 319° |
| 2026-05-04 18:41 | 59.68252 | 30.66001 | 2466 ft | 209 kts | 330° |
| 2026-05-04 18:41 | 59.69545 | 30.64898 | 2470 ft | 195 kts | 330° |
| 2026-05-04 18:41 | 59.70754 | 30.63781 | 2492 ft | 186 kts | 327° |
| 2026-05-04 18:42 | 59.71887 | 30.62658 | 2521 ft | 180 kts | 327° |
| 2026-05-04 18:42 | 59.73016 | 30.61519 | 2503 ft | 183 kts | 326° |
| 2026-05-04 18:42 | 59.74124 | 30.60416 | 2471 ft | 170 kts | 327° |
| 2026-05-04 18:42 | 59.75156 | 30.59359 | 2475 ft | 161 kts | 319° |
| 2026-05-04 18:43 | 59.75812 | 30.57704 | 2500 ft | 155 kts | 286° |
| 2026-05-04 18:43 | 59.76127 | 30.55661 | 2490 ft | 152 kts | 287° |
| 2026-05-04 18:43 | 59.76465 | 30.53807 | 2517 ft | 137 kts | 287° |
| 2026-05-04 18:43 | 59.76760 | 30.52040 | 2400 ft | 134 kts | 285° |
| 2026-05-04 18:44 | 59.77037 | 30.50266 | 2192 ft | 133 kts | 285° |
| 2026-05-04 18:44 | 59.77224 | 30.49104 | 2073 ft | 131 kts | 285° |
| 2026-05-04 18:44 | 59.77577 | 30.46797 | 1813 ft | 133 kts | 286° |
| 2026-05-04 18:44 | 59.77868 | 30.45091 | 1604 ft | 129 kts | 288° |
| 2026-05-04 18:45 | 59.78137 | 30.43408 | 1486 ft | 131 kts | 286° |
| 2026-05-04 18:45 | 59.78398 | 30.41675 | 1338 ft | 132 kts | 286° |
| 2026-05-04 18:45 | 59.78673 | 30.39890 | 1125 ft | 135 kts | 286° |
| 2026-05-04 18:45 | 59.78950 | 30.38096 | 917 ft | 136 kts | 287° |
| 2026-05-04 18:46 | 59.79224 | 30.36309 | 758 ft | 137 kts | 286° |
| 2026-05-04 18:46 | 59.79490 | 30.34503 | 520 ft | 138 kts | 287° |
| 2026-05-04 18:46 | 59.79768 | 30.32669 | 374 ft | 138 kts | 287° |
| 2026-05-04 18:46 | 59.80032 | 30.30836 | 201 ft | 140 kts | 286° |
| 2026-05-04 18:47 | 59.80298 | 30.29035 | 87 ft | 123 kts | 287° |
| 2026-05-04 18:47 | 59.80508 | 30.27679 | 87 ft | 80 kts | 287° |
| 2026-05-04 18:47 | 59.80617 | 30.26942 | 87 ft | 30 kts | 285° |
| 2026-05-04 18:47 | 59.80635 | 30.26695 | 87 ft | 10 kts | 236° |
| 2026-05-04 18:48 | 59.80580 | 30.26633 | 87 ft | 8 kts | 203° |
| 2026-05-04 18:48 | 59.80573 | 30.26626 | 87 ft | 0 kts | 202° |
| 2026-05-04 18:48 | 59.80572 | 30.26625 | 87 ft | 0 kts | 202° |
| 2026-05-04 18:48 | 59.80553 | 30.26610 | 87 ft | 4 kts | 201° |
| 2026-05-04 18:49 | 59.80510 | 30.26583 | 87 ft | 8 kts | 196° |
| 2026-05-04 18:49 | 59.80458 | 30.26572 | 87 ft | 6 kts | 157° |
| 2026-05-04 18:49 | 59.80432 | 30.26636 | 87 ft | 5 kts | 111° |
| 2026-05-04 18:49 | 59.80418 | 30.26721 | 87 ft | 8 kts | 106° |
| 2026-05-04 18:50 | 59.80400 | 30.26832 | 87 ft | 7 kts | 120° |
| 2026-05-04 18:50 | 59.80358 | 30.26852 | 87 ft | 5 kts | 190° |
| 2026-05-04 18:50 | 59.80313 | 30.26828 | 87 ft | 10 kts | 195° |
| 2026-05-04 18:50 | 59.80235 | 30.26782 | 87 ft | 11 kts | 197° |
| 2026-05-04 18:51 | 59.80160 | 30.26738 | 87 ft | 10 kts | 196° |
| 2026-05-04 18:51 | 59.80091 | 30.26698 | 87 ft | 9 kts | 196° |
| 2026-05-04 18:51 | 59.80029 | 30.26660 | 87 ft | 8 kts | 197° |
| 2026-05-04 18:51 | 59.79974 | 30.26627 | 87 ft | 7 kts | 196° |
| 2026-05-04 18:52 | 59.79924 | 30.26597 | 87 ft | 7 kts | 197° |
| 2026-05-04 18:52 | 59.79875 | 30.26568 | 87 ft | 7 kts | 196° |
| 2026-05-04 18:52 | 59.79827 | 30.26540 | 87 ft | 6 kts | 196° |
| 2026-05-04 18:52 | 59.79792 | 30.26557 | 87 ft | 5 kts | 124° |
| 2026-05-04 18:53 | 59.79784 | 30.26620 | 87 ft | 4 kts | 97° |
| 2026-05-04 18:53 | 59.79781 | 30.26669 | 87 ft | 0 kts | 95° |